createdAt,value
2019-04-14T00:01:32.743Z,2.51
2019-04-14T00:04:12.333Z,2.49
2019-04-14T00:06:44.022Z,2.47
2019-04-14T00:09:16.340Z,2.45
2019-04-14T00:11:46.272Z,2.43
2019-04-14T00:14:16.390Z,2.42
2019-04-14T00:16:46.735Z,2.40
2019-04-14T00:19:17.350Z,2.39
2019-04-14T00:21:47.627Z,2.36
2019-04-14T00:24:18.443Z,2.35
2019-04-14T00:26:48.803Z,2.34
2019-04-14T00:29:19.302Z,2.32
2019-04-14T00:31:51.928Z,2.33
2019-04-14T00:34:38.017Z,2.31
2019-04-14T00:37:14.108Z,2.29
2019-04-14T00:39:46.376Z,2.29
2019-04-14T00:42:19.133Z,2.26
2019-04-14T00:44:51.819Z,2.27
2019-04-14T00:47:35.396Z,2.25
2019-04-14T00:50:08.010Z,2.25
2019-04-14T00:52:37.656Z,2.24
2019-04-14T00:55:08.163Z,2.24
2019-04-14T00:57:37.729Z,2.23
2019-04-14T01:00:08.749Z,2.23
2019-04-14T01:02:38.526Z,2.23
2019-04-14T01:05:08.960Z,2.22
2019-04-14T01:07:39.166Z,2.24
2019-04-14T01:10:10.297Z,2.24
2019-04-14T01:12:40.931Z,2.25
2019-04-14T01:15:11.514Z,2.25
2019-04-14T01:17:41.765Z,2.27
2019-04-14T01:20:12.503Z,2.28
2019-04-14T01:22:42.481Z,2.28
2019-04-14T01:25:12.873Z,2.29
2019-04-14T01:27:42.917Z,2.30
2019-04-14T01:30:13.568Z,2.31
2019-04-14T01:32:43.645Z,2.31
2019-04-14T01:35:13.840Z,2.33
2019-04-14T01:37:44.091Z,2.34
2019-04-14T01:40:14.214Z,2.37
2019-04-14T01:42:44.193Z,2.38
2019-04-14T01:45:16.469Z,2.40
2019-04-14T01:47:46.734Z,2.44
2019-04-14T01:50:19.128Z,2.49
2019-04-14T01:52:52.289Z,2.52
2019-04-14T01:55:39.528Z,2.56
2019-04-14T01:58:14.390Z,2.60
2019-04-14T02:00:46.689Z,2.64
2019-04-14T02:03:17.054Z,2.68
2019-04-14T02:05:47.483Z,2.71
2019-04-14T02:08:17.754Z,2.75
2019-04-14T02:10:47.817Z,2.77
2019-04-14T02:13:18.163Z,2.81
2019-04-14T02:15:48.507Z,2.84
2019-04-14T02:18:18.579Z,2.87
2019-04-14T02:20:49.035Z,2.89
2019-04-14T02:23:19.263Z,2.92
2019-04-14T02:25:49.378Z,2.94
2019-04-14T02:28:19.922Z,2.97
2019-04-14T02:31:00.270Z,3.00
2019-04-14T02:33:44.447Z,3.01
2019-04-14T02:36:22.012Z,3.04
2019-04-14T02:38:59.001Z,3.06
2019-04-14T02:41:43.582Z,3.09
2019-04-14T02:44:01.572Z,3.11
2019-04-14T02:46:20.089Z,3.14
2019-04-14T02:49:03.920Z,3.17
2019-04-14T02:51:27.575Z,3.19
2019-04-14T02:53:59.232Z,3.22
2019-04-14T02:59:19.765Z,3.30
2019-04-14T03:03:56.479Z,3.38
2019-04-14T03:06:52.189Z,3.41
2019-04-14T03:09:12.590Z,3.45
2019-04-14T03:11:43.277Z,3.48
2019-04-14T03:14:07.970Z,3.52
2019-04-14T03:19:59.161Z,3.57
2019-04-14T03:22:32.927Z,3.59
2019-04-14T03:24:55.878Z,3.62
2019-04-14T03:30:35.788Z,3.66
2019-04-14T03:37:54.151Z,3.75
2019-04-14T03:40:28.445Z,3.76
2019-04-14T03:42:59.640Z,3.79
2019-04-14T03:45:37.261Z,3.83
2019-04-14T03:48:31.580Z,3.83
2019-04-14T03:50:28.172Z,3.87
2019-04-14T03:53:12.011Z,3.87
2019-04-14T03:55:21.574Z,3.88
2019-04-14T03:57:36.702Z,3.88
2019-04-14T04:00:07.464Z,3.90
2019-04-14T04:02:38.024Z,3.92
2019-04-14T04:05:08.543Z,3.93
2019-04-14T04:07:38.862Z,3.96
2019-04-14T04:10:11.349Z,3.98
2019-04-14T04:12:42.115Z,4.00
2019-04-14T04:15:12.579Z,4.03
2019-04-14T04:17:53.703Z,4.06
2019-04-14T04:20:37.104Z,4.09
2019-04-14T04:23:09.464Z,4.11
2019-04-14T04:25:46.945Z,4.15
2019-04-14T04:28:30.090Z,4.18
2019-04-14T04:31:05.353Z,4.22
2019-04-14T04:33:39.414Z,4.26
2019-04-14T04:36:22.494Z,4.30
2019-04-14T04:38:57.506Z,4.33
2019-04-14T04:41:27.525Z,4.36
2019-04-14T04:43:58.245Z,4.39
2019-04-14T04:46:28.784Z,4.43
2019-04-14T04:49:09.087Z,4.48
2019-04-14T04:51:29.461Z,4.52
2019-04-14T04:53:59.445Z,4.57
2019-04-14T04:56:29.733Z,4.61
2019-04-14T04:58:59.281Z,4.66
2019-04-14T05:01:29.585Z,4.70
2019-04-14T05:04:00.255Z,4.75
2019-04-14T05:07:01.491Z,4.79
2019-04-14T05:09:38.580Z,4.83
2019-04-14T05:12:26.679Z,4.90
2019-04-14T05:14:58.852Z,4.94
2019-04-14T05:17:33.998Z,4.98
2019-04-14T05:20:05.213Z,5.01
2019-04-14T05:22:35.403Z,5.06
2019-04-14T05:25:07.807Z,5.10
2019-04-14T05:27:38.661Z,5.12
2019-04-14T05:30:09.112Z,5.18
2019-04-14T05:32:39.113Z,5.21
2019-04-14T05:35:09.630Z,5.26
2019-04-14T05:37:40.077Z,5.30
2019-04-14T05:40:10.277Z,5.33
2019-04-14T05:42:40.714Z,5.37
2019-04-14T05:45:11.194Z,5.42
2019-04-14T05:47:41.491Z,5.46
2019-04-14T05:50:11.746Z,5.52
2019-04-14T05:52:41.183Z,5.57
2019-04-14T05:55:11.303Z,5.63
2019-04-14T05:57:41.635Z,5.69
2019-04-14T06:00:14.526Z,5.75
2019-04-14T06:02:44.325Z,5.83
2019-04-14T06:05:14.549Z,5.88
2019-04-14T06:07:44.103Z,5.95
2019-04-14T06:10:13.676Z,5.98
2019-04-14T06:12:43.157Z,6.00
2019-04-14T06:15:12.871Z,6.02
2019-04-14T06:17:42.381Z,6.04
2019-04-14T06:20:12.282Z,6.03
2019-04-14T06:22:41.785Z,6.03
2019-04-14T06:25:11.395Z,6.03
2019-04-14T06:27:40.885Z,6.04
2019-04-14T06:30:19.353Z,6.04
2019-04-14T06:32:49.900Z,6.06
2019-04-14T06:35:21.027Z,6.10
2019-04-14T06:37:54.586Z,6.15
2019-04-14T06:40:25.808Z,6.21
2019-04-14T06:42:55.285Z,6.29
2019-04-14T06:45:24.786Z,6.37
2019-04-14T06:47:54.256Z,6.46
2019-04-14T06:50:23.710Z,6.52
2019-04-14T06:52:53.232Z,6.60
2019-04-14T06:55:22.718Z,6.67
2019-04-14T06:57:52.201Z,6.73
2019-04-14T07:00:21.761Z,6.80
2019-04-14T07:02:51.248Z,6.88
2019-04-14T07:05:20.716Z,6.94
2019-04-14T07:07:56.938Z,7.01
2019-04-14T07:10:21.474Z,7.05
2019-04-14T07:13:13.742Z,7.11
2019-04-14T07:15:41.495Z,7.17
2019-04-14T07:18:12.160Z,7.25
2019-04-14T07:20:47.491Z,7.31
2019-04-14T07:23:17.070Z,7.36
2019-04-14T07:25:46.582Z,7.41
2019-04-14T07:28:16.067Z,7.47
2019-04-14T07:30:45.345Z,7.53
2019-04-14T07:33:19.376Z,7.58
2019-04-14T07:35:56.295Z,7.65
2019-04-14T07:38:27.623Z,7.70
2019-04-14T07:41:10.460Z,7.75
2019-04-14T07:43:59.729Z,7.81
2019-04-14T07:46:42.677Z,7.88
2019-04-14T07:49:11.950Z,7.96
2019-04-14T07:51:43.061Z,8.03
2019-04-14T07:54:22.876Z,8.13
2019-04-14T07:56:54.094Z,8.22
2019-04-14T07:59:31.070Z,8.31
2019-04-14T08:02:02.256Z,8.39
2019-04-14T08:04:33.470Z,8.45
2019-04-14T08:07:03.052Z,8.50
2019-04-14T08:09:32.586Z,8.55
2019-04-14T08:12:02.150Z,8.60
2019-04-14T08:14:31.703Z,8.66
2019-04-14T08:17:01.236Z,8.71
2019-04-14T08:19:30.677Z,8.77
2019-04-14T08:22:00.235Z,8.82
2019-04-14T08:24:29.803Z,8.87
2019-04-14T08:26:59.319Z,8.93
2019-04-14T08:29:28.883Z,8.96
2019-04-14T08:31:58.371Z,9.01
2019-04-14T08:34:27.892Z,9.06
2019-04-14T08:36:57.365Z,9.12
2019-04-14T08:39:26.919Z,9.17
2019-04-14T08:42:01.216Z,9.26
2019-04-14T08:44:39.593Z,9.35
2019-04-14T08:47:19.942Z,9.42
2019-04-14T08:49:52.249Z,9.50
2019-04-14T08:52:34.959Z,9.57
2019-04-14T08:55:16.276Z,9.64
2019-04-14T08:57:45.555Z,9.69
2019-04-14T09:00:19.346Z,9.78
2019-04-14T09:02:57.587Z,9.86
2019-04-14T09:06:05.847Z,9.94
2019-04-14T09:08:35.185Z,10.06
2019-04-14T09:11:06.297Z,10.21
2019-04-14T09:13:35.774Z,10.36
2019-04-14T09:16:05.478Z,10.50
2019-04-14T09:18:35.006Z,10.65
2019-04-14T09:21:04.671Z,10.81
2019-04-14T09:23:34.312Z,10.94
2019-04-14T09:26:03.869Z,11.06
2019-04-14T09:28:33.418Z,11.13
2019-04-14T09:31:02.982Z,11.16
2019-04-14T09:33:32.472Z,11.21
2019-04-14T09:36:01.988Z,11.27
2019-04-14T09:38:31.552Z,11.32
2019-04-14T09:41:01.063Z,11.38
2019-04-14T09:43:30.654Z,11.44
2019-04-14T09:46:00.232Z,11.48
2019-04-14T09:48:49.079Z,11.52
2019-04-14T09:51:18.562Z,11.56
2019-04-14T09:53:48.189Z,11.61
2019-04-14T09:56:17.810Z,11.65
2019-04-14T09:58:47.409Z,11.71
2019-04-14T10:01:16.925Z,11.78
2019-04-14T10:03:46.478Z,11.88
2019-04-14T10:06:15.963Z,11.95
2019-04-14T10:08:45.485Z,12.03
2019-04-14T10:11:15.047Z,12.08
2019-04-14T10:13:44.656Z,12.14
2019-04-14T10:16:14.202Z,12.20
2019-04-14T10:18:43.707Z,12.26
2019-04-14T10:21:17.617Z,12.22
2019-04-14T10:23:44.590Z,12.32
2019-04-14T10:26:14.196Z,12.32
2019-04-14T10:28:43.677Z,12.34
2019-04-14T10:31:13.250Z,12.38
2019-04-14T10:33:42.775Z,12.41
2019-04-14T10:36:12.291Z,12.45
2019-04-14T10:38:41.820Z,12.52
2019-04-14T10:41:11.347Z,12.58
2019-04-14T10:43:40.951Z,12.64
2019-04-14T10:46:10.512Z,12.70
2019-04-14T10:48:40.024Z,12.76
2019-04-14T10:51:09.499Z,12.79
2019-04-14T10:53:39.084Z,12.84
2019-04-14T10:56:08.606Z,12.90
2019-04-14T10:58:38.081Z,12.94
2019-04-14T11:01:07.670Z,13.00
2019-04-14T11:03:37.198Z,13.05
2019-04-14T11:06:08.490Z,13.10
2019-04-14T11:08:37.999Z,13.17
2019-04-14T11:11:07.559Z,13.21
2019-04-14T11:13:37.177Z,13.28
2019-04-14T11:16:06.699Z,13.32
2019-04-14T11:18:36.199Z,13.35
2019-04-14T11:21:05.840Z,13.41
2019-04-14T11:23:35.334Z,13.45
2019-04-14T11:26:04.981Z,13.50
2019-04-14T11:28:34.566Z,13.55
2019-04-14T11:31:04.340Z,13.63
2019-04-14T11:33:51.372Z,13.71
2019-04-14T11:36:34.086Z,13.82
2019-04-14T11:39:08.494Z,13.97
2019-04-14T11:41:37.971Z,14.14
2019-04-14T11:44:07.513Z,14.31
2019-04-14T11:46:37.011Z,14.43
2019-04-14T11:49:06.646Z,14.56
2019-04-14T11:51:36.204Z,14.66
2019-04-14T11:54:05.966Z,14.80
2019-04-14T11:56:35.521Z,14.90
2019-04-14T11:59:05.102Z,14.96
2019-04-14T12:01:34.446Z,14.95
2019-04-14T12:04:21.646Z,14.90
2019-04-14T12:06:56.948Z,14.81
2019-04-14T12:09:34.264Z,14.72
2019-04-14T12:12:05.265Z,14.71
2019-04-14T12:14:34.771Z,14.75
2019-04-14T12:17:04.239Z,14.79
2019-04-14T12:19:33.756Z,14.83
2019-04-14T12:22:08.562Z,14.85
2019-04-14T12:24:34.714Z,14.88
2019-04-14T12:27:04.191Z,14.87
2019-04-14T12:29:34.758Z,14.83
2019-04-14T12:32:04.862Z,14.83
2019-04-14T12:34:34.415Z,14.83
2019-04-14T12:37:04.088Z,14.80
2019-04-14T12:39:33.627Z,14.80
2019-04-14T12:42:07.320Z,14.77
2019-04-14T12:44:41.688Z,14.77
2019-04-14T12:47:29.148Z,14.79
2019-04-14T12:50:06.072Z,14.82
2019-04-14T12:52:35.562Z,14.91
2019-04-14T12:55:07.160Z,14.97
2019-04-14T12:57:47.334Z,14.98
2019-04-14T13:00:19.558Z,14.97
2019-04-14T13:02:50.772Z,14.92
2019-04-14T13:05:20.402Z,14.89
2019-04-14T13:07:49.878Z,14.87
2019-04-14T13:10:19.528Z,14.82
2019-04-14T13:12:49.013Z,14.81
2019-04-14T13:15:18.588Z,14.80
2019-04-14T13:17:48.126Z,14.80
2019-04-14T13:20:17.797Z,14.81
2019-04-14T13:22:47.425Z,14.83
2019-04-14T13:25:17.040Z,14.84
2019-04-14T13:27:46.598Z,14.82
2019-04-14T13:30:17.819Z,14.77
2019-04-14T13:32:47.295Z,14.71
2019-04-14T13:35:16.784Z,14.66
2019-04-14T13:37:46.314Z,14.63
2019-04-14T13:40:16.022Z,14.63
2019-04-14T13:42:45.532Z,14.64
2019-04-14T13:45:15.073Z,14.65
2019-04-14T13:47:44.567Z,14.63
2019-04-14T13:50:14.261Z,14.61
2019-04-14T13:52:47.054Z,14.57
2019-04-14T13:55:15.114Z,14.53
2019-04-14T13:57:44.626Z,14.48
2019-04-14T14:00:15.117Z,14.45
2019-04-14T14:02:44.778Z,14.44
2019-04-14T14:05:14.446Z,14.43
2019-04-14T14:07:43.937Z,14.44
2019-04-14T14:10:13.920Z,14.48
2019-04-14T14:12:47.893Z,14.52
2019-04-14T14:15:34.983Z,14.55
2019-04-14T14:18:07.129Z,14.59
2019-04-14T14:20:43.457Z,14.63
2019-04-14T14:23:14.573Z,14.66
2019-04-14T14:25:51.508Z,14.68
2019-04-14T14:28:20.998Z,14.71
2019-04-14T14:30:50.570Z,14.73
2019-04-14T14:33:20.098Z,14.77
2019-04-14T14:35:49.616Z,14.79
2019-04-14T14:38:19.181Z,14.80
2019-04-14T14:40:49.358Z,14.80
2019-04-14T14:43:18.917Z,14.79
2019-04-14T14:45:50.136Z,14.79
2019-04-14T14:48:24.096Z,14.80
2019-04-14T14:50:57.771Z,14.78
2019-04-14T14:53:27.357Z,14.76
2019-04-14T14:55:56.939Z,14.70
2019-04-14T14:58:26.553Z,14.62
2019-04-14T15:00:56.493Z,14.54
2019-04-14T15:03:26.156Z,14.46
2019-04-14T15:05:55.650Z,14.41
2019-04-14T15:08:25.203Z,14.35
2019-04-14T15:10:54.756Z,14.35
2019-04-14T15:13:24.227Z,14.34
2019-04-14T15:15:53.813Z,14.34
2019-04-14T15:18:23.273Z,14.33
2019-04-14T15:20:52.777Z,14.31
2019-04-14T15:23:25.326Z,14.29
2019-04-14T15:25:53.490Z,14.27
2019-04-14T15:28:23.008Z,14.25
2019-04-14T15:30:52.518Z,14.23
2019-04-14T15:33:22.016Z,14.20
2019-04-14T15:35:51.612Z,14.17
2019-04-14T15:38:21.190Z,14.15
2019-04-14T15:40:50.753Z,14.12
2019-04-14T15:43:20.265Z,14.08
2019-04-14T15:45:49.806Z,14.05
2019-04-14T15:48:19.297Z,14.00
2019-04-14T15:50:48.931Z,13.97
2019-04-14T15:53:19.387Z,13.92
2019-04-14T15:55:48.955Z,13.88
2019-04-14T15:58:26.983Z,13.84
2019-04-14T16:01:14.578Z,13.81
2019-04-14T16:03:45.704Z,13.76
2019-04-14T16:06:35.143Z,13.69
2019-04-14T16:09:23.645Z,13.65
2019-04-14T16:12:03.643Z,13.58
2019-04-14T16:14:40.282Z,13.49
2019-04-14T16:17:27.629Z,13.43
2019-04-14T16:20:07.588Z,13.35
2019-04-14T16:22:38.988Z,13.29
2019-04-14T16:25:08.438Z,13.21
2019-04-14T16:27:39.572Z,13.13
2019-04-14T16:30:14.037Z,13.08
2019-04-14T16:32:48.290Z,13.05
2019-04-14T16:35:19.460Z,13.05
2019-04-14T16:37:48.938Z,13.06
2019-04-14T16:40:18.487Z,13.08
2019-04-14T16:42:47.985Z,13.12
2019-04-14T16:45:17.710Z,13.17
2019-04-14T16:47:47.206Z,13.20
2019-04-14T16:50:16.790Z,13.23
2019-04-14T16:52:50.611Z,13.29
2019-04-14T16:55:21.753Z,13.33
2019-04-14T16:58:08.690Z,13.36
2019-04-14T17:00:42.602Z,13.39
2019-04-14T17:03:12.103Z,13.42
2019-04-14T17:05:41.822Z,13.45
2019-04-14T17:08:11.398Z,13.48
2019-04-14T17:10:40.943Z,13.48
2019-04-14T17:13:10.480Z,13.42
2019-04-14T17:15:45.874Z,13.34
2019-04-14T17:18:17.055Z,13.25
2019-04-14T17:21:04.385Z,13.17
2019-04-14T17:23:38.093Z,13.10
2019-04-14T17:26:18.133Z,13.06
2019-04-14T17:28:49.346Z,13.03
2019-04-14T17:31:23.336Z,13.02
2019-04-14T17:33:57.155Z,12.95
2019-04-14T17:36:38.425Z,12.85
2019-04-14T17:39:13.407Z,12.74
2019-04-14T17:41:56.694Z,12.66
2019-04-14T17:44:33.887Z,12.62
2019-04-14T17:47:21.123Z,12.58
2019-04-14T17:49:54.777Z,12.54
2019-04-14T17:52:44.147Z,12.48
2019-04-14T17:55:15.627Z,12.43
2019-04-14T17:57:55.350Z,12.35
2019-04-14T18:00:26.583Z,12.20
2019-04-14T18:02:55.829Z,12.01
2019-04-14T18:05:32.800Z,11.81
2019-04-14T18:08:03.892Z,11.61
2019-04-14T18:10:37.717Z,11.43
2019-04-14T18:13:26.948Z,11.26
2019-04-14T18:15:58.108Z,11.09
2019-04-14T18:18:41.207Z,10.88
2019-04-14T18:21:11.646Z,10.74
2019-04-14T18:23:41.286Z,10.57
2019-04-14T18:26:10.893Z,10.44
2019-04-14T18:28:44.491Z,10.32
2019-04-14T18:31:25.892Z,10.19
2019-04-14T18:33:57.043Z,10.09
2019-04-14T18:36:34.042Z,9.98
2019-04-14T18:39:18.579Z,9.88
2019-04-14T18:41:52.392Z,9.78
2019-04-14T18:44:32.146Z,9.66
2019-04-14T18:47:19.310Z,9.58
2019-04-14T18:49:50.427Z,9.50
2019-04-14T18:52:21.590Z,9.42
2019-04-14T18:54:55.302Z,9.34
2019-04-14T18:57:26.608Z,9.27
2019-04-14T18:59:57.727Z,9.21
2019-04-14T19:02:27.481Z,9.15
2019-04-14T19:04:57.013Z,9.09
2019-04-14T19:07:26.715Z,9.04
2019-04-14T19:09:56.225Z,8.98
2019-04-14T19:12:36.238Z,8.93
2019-04-14T19:15:15.030Z,8.87
2019-04-14T19:17:49.209Z,8.83
2019-04-14T19:20:20.443Z,8.79
2019-04-14T19:22:50.027Z,8.75
2019-04-14T19:25:19.649Z,8.70
2019-04-14T19:27:49.223Z,8.67
2019-04-14T19:30:18.988Z,8.65
2019-04-14T19:32:48.662Z,8.62
2019-04-14T19:35:18.231Z,8.59
2019-04-14T19:37:47.775Z,8.57
2019-04-14T19:40:17.458Z,8.56
2019-04-14T19:42:46.920Z,8.52
2019-04-14T19:45:16.632Z,8.51
2019-04-14T19:47:46.144Z,8.50
2019-04-14T19:50:15.799Z,8.48
2019-04-14T19:52:45.248Z,8.46
2019-04-14T19:55:20.490Z,8.44
2019-04-14T19:57:47.143Z,8.41
2019-04-14T20:00:17.610Z,8.39
2019-04-14T20:02:47.071Z,8.35
2019-04-14T20:05:16.688Z,8.32
2019-04-14T20:07:46.132Z,8.30
2019-04-14T20:10:15.809Z,8.28
2019-04-14T20:12:45.356Z,8.25
2019-04-14T20:15:16.643Z,8.21
2019-04-14T20:17:45.969Z,8.19
2019-04-14T20:20:17.213Z,8.17
2019-04-14T20:23:03.554Z,8.14
2019-04-14T20:25:34.653Z,8.11
2019-04-14T20:28:08.841Z,8.10
2019-04-14T20:30:54.661Z,8.07
2019-04-14T20:33:24.393Z,8.03
2019-04-14T20:35:54.022Z,8.00
2019-04-14T20:38:23.552Z,7.98
2019-04-14T20:40:53.239Z,7.94
2019-04-14T20:43:22.766Z,7.93
2019-04-14T20:45:52.328Z,7.89
2019-04-14T20:48:21.846Z,7.88
2019-04-14T20:50:51.398Z,7.84
2019-04-14T20:53:21.009Z,7.82
2019-04-14T20:55:50.549Z,7.77
2019-04-14T20:58:20.062Z,7.74
2019-04-14T21:00:49.699Z,7.70
2019-04-14T21:03:37.164Z,7.65
2019-04-14T21:06:26.559Z,7.62
2019-04-14T21:08:56.499Z,7.57
2019-04-14T21:11:33.078Z,7.51
2019-04-14T21:14:22.131Z,7.46
2019-04-14T21:16:53.248Z,7.40
2019-04-14T21:19:24.342Z,7.34
2019-04-14T21:21:53.676Z,7.26
2019-04-14T21:24:24.831Z,7.20
2019-04-14T21:27:14.437Z,7.14
2019-04-14T21:29:48.374Z,7.06
2019-04-14T21:32:19.634Z,7.00
2019-04-14T21:34:54.722Z,6.94
2019-04-14T21:37:29.590Z,6.90
2019-04-14T21:40:06.733Z,6.83
2019-04-14T21:42:36.190Z,6.78
2019-04-14T21:45:08.611Z,6.76
2019-04-14T21:47:38.163Z,6.73
2019-04-14T21:50:08.587Z,6.69
2019-04-14T21:52:42.730Z,6.65
2019-04-14T21:55:12.428Z,6.61
2019-04-14T21:57:46.501Z,6.60
2019-04-14T22:00:28.154Z,6.55
2019-04-14T22:03:15.709Z,6.51
2019-04-14T22:05:48.120Z,6.48
2019-04-14T22:08:25.413Z,6.43
2019-04-14T22:11:00.202Z,6.40
2019-04-14T22:13:29.670Z,6.37
2019-04-14T22:15:59.380Z,6.35
2019-04-14T22:18:28.897Z,6.32
2019-04-14T22:20:58.449Z,6.31
2019-04-14T22:23:27.915Z,6.29
2019-04-14T22:25:57.395Z,6.30
2019-04-14T22:28:27.013Z,6.30
2019-04-14T22:30:56.525Z,6.30
2019-04-14T22:33:26.131Z,6.32
2019-04-14T22:35:55.697Z,6.35
2019-04-14T22:38:25.232Z,6.39
2019-04-14T22:40:54.792Z,6.46
2019-04-14T22:43:24.305Z,6.52
2019-04-14T22:45:53.833Z,6.59
2019-04-14T22:48:23.403Z,6.66
2019-04-14T22:50:52.867Z,6.74
2019-04-14T22:53:22.324Z,6.81
2019-04-14T22:55:51.895Z,6.90
2019-04-14T22:58:21.451Z,6.97
2019-04-14T23:00:55.153Z,7.05
2019-04-14T23:03:38.298Z,7.12
2019-04-14T23:06:25.692Z,7.20
2019-04-14T23:09:02.263Z,7.26
2019-04-14T23:11:35.811Z,7.32
2019-04-14T23:14:09.795Z,7.38
2019-04-14T23:16:40.991Z,7.44
2019-04-14T23:19:28.184Z,7.48
2019-04-14T23:22:00.042Z,7.52
2019-04-14T23:24:31.190Z,7.54
2019-04-14T23:27:00.715Z,7.55
2019-04-14T23:29:30.418Z,7.55
2019-04-14T23:32:00.064Z,7.55
2019-04-14T23:34:29.544Z,7.55
2019-04-14T23:36:59.018Z,7.54
2019-04-14T23:39:28.537Z,7.53
2019-04-14T23:41:58.169Z,7.53
2019-04-14T23:44:27.659Z,7.53
2019-04-14T23:46:57.224Z,7.54
2019-04-14T23:49:26.676Z,7.55
2019-04-14T23:51:56.246Z,7.56
2019-04-14T23:54:25.742Z,7.56
2019-04-14T23:57:05.234Z,7.58
2019-04-14T23:59:26.646Z,7.60
